sensor_id;sensor_type;location;lat;lon;timestamp;P1;durP1;ratioP1;P2;durP2;ratioP2
6288;SDS011;3177;49.880;8.836;2023-09-30T00:00:08;2.20;;;1.80;;
6288;SDS011;3177;49.880;8.836;2023-09-30T00:02:36;3.93;;;2.00;;
6288;SDS011;3177;49.880;8.836;2023-09-30T00:05:03;5.57;;;1.87;;
6288;SDS011;3177;49.880;8.836;2023-09-30T00:07:31;3.37;;;1.70;;
6288;SDS011;3177;49.880;8.836;2023-09-30T00:09:58;3.10;;;1.80;;
6288;SDS011;3177;49.880;8.836;2023-09-30T00:12:25;5.07;;;1.90;;
6288;SDS011;3177;49.880;8.836;2023-09-30T00:14:53;3.17;;;1.80;;
6288;SDS011;3177;49.880;8.836;2023-09-30T00:17:21;2.23;;;1.63;;
6288;SDS011;3177;49.880;8.836;2023-09-30T00:19:48;5.67;;;1.80;;
6288;SDS011;3177;49.880;8.836;2023-09-30T00:22:15;5.53;;;1.80;;
6288;SDS011;3177;49.880;8.836;2023-09-30T00:24:42;5.63;;;2.00;;
6288;SDS011;3177;49.880;8.836;2023-09-30T00:27:09;2.97;;;1.70;;
6288;SDS011;3177;49.880;8.836;2023-09-30T00:29:36;5.53;;;1.97;;
6288;SDS011;3177;49.880;8.836;2023-09-30T00:32:04;3.57;;;2.00;;
6288;SDS011;3177;49.880;8.836;2023-09-30T00:34:32;2.07;;;1.60;;
6288;SDS011;3177;49.880;8.836;2023-09-30T00:36:59;5.70;;;2.07;;
6288;SDS011;3177;49.880;8.836;2023-09-30T00:39:26;2.83;;;1.70;;
6288;SDS011;3177;49.880;8.836;2023-09-30T00:41:55;2.07;;;1.80;;
6288;SDS011;3177;49.880;8.836;2023-09-30T00:44:23;3.53;;;1.80;;
6288;SDS011;3177;49.880;8.836;2023-09-30T00:46:50;2.00;;;1.70;;
6288;SDS011;3177;49.880;8.836;2023-09-30T00:49:19;2.07;;;1.87;;
6288;SDS011;3177;49.880;8.836;2023-09-30T00:51:46;6.73;;;1.97;;
6288;SDS011;3177;49.880;8.836;2023-09-30T00:54:14;2.83;;;1.80;;
6288;SDS011;3177;49.880;8.836;2023-09-30T00:56:43;3.53;;;2.10;;
6288;SDS011;3177;49.880;8.836;2023-09-30T00:59:10;4.10;;;1.83;;
6288;SDS011;3177;49.880;8.836;2023-09-30T01:01:37;3.73;;;2.03;;
6288;SDS011;3177;49.880;8.836;2023-09-30T01:04:05;2.10;;;1.80;;
6288;SDS011;3177;49.880;8.836;2023-09-30T01:06:33;3.63;;;1.70;;
6288;SDS011;3177;49.880;8.836;2023-09-30T01:09:00;1.93;;;1.60;;
6288;SDS011;3177;49.880;8.836;2023-09-30T01:11:28;2.50;;;1.63;;
6288;SDS011;3177;49.880;8.836;2023-09-30T01:13:55;3.17;;;1.83;;
6288;SDS011;3177;49.880;8.836;2023-09-30T01:16:22;2.87;;;1.77;;
6288;SDS011;3177;49.880;8.836;2023-09-30T01:18:49;3.10;;;1.80;;
6288;SDS011;3177;49.880;8.836;2023-09-30T01:21:17;7.50;;;2.20;;
6288;SDS011;3177;49.880;8.836;2023-09-30T01:23:46;3.20;;;1.93;;
6288;SDS011;3177;49.880;8.836;2023-09-30T01:26:13;6.67;;;2.17;;
6288;SDS011;3177;49.880;8.836;2023-09-30T01:28:40;3.77;;;1.83;;
6288;SDS011;3177;49.880;8.836;2023-09-30T01:31:07;2.23;;;1.83;;
6288;SDS011;3177;49.880;8.836;2023-09-30T01:33:34;5.30;;;1.63;;
6288;SDS011;3177;49.880;8.836;2023-09-30T01:36:02;4.43;;;2.10;;
6288;SDS011;3177;49.880;8.836;2023-09-30T01:38:29;4.63;;;2.10;;
6288;SDS011;3177;49.880;8.836;2023-09-30T01:40:57;3.97;;;2.30;;
6288;SDS011;3177;49.880;8.836;2023-09-30T01:43:24;3.57;;;2.10;;
6288;SDS011;3177;49.880;8.836;2023-09-30T01:45:51;2.50;;;2.10;;
6288;SDS011;3177;49.880;8.836;2023-09-30T01:48:18;3.33;;;2.13;;
6288;SDS011;3177;49.880;8.836;2023-09-30T01:50:45;2.77;;;1.80;;
6288;SDS011;3177;49.880;8.836;2023-09-30T01:53:13;1.97;;;1.60;;
6288;SDS011;3177;49.880;8.836;2023-09-30T01:55:40;5.60;;;2.20;;
6288;SDS011;3177;49.880;8.836;2023-09-30T01:58:09;5.07;;;2.20;;
6288;SDS011;3177;49.880;8.836;2023-09-30T02:00:36;5.40;;;2.07;;
6288;SDS011;3177;49.880;8.836;2023-09-30T02:03:03;3.63;;;2.67;;
6288;SDS011;3177;49.880;8.836;2023-09-30T02:05:31;3.60;;;2.00;;
6288;SDS011;3177;49.880;8.836;2023-09-30T02:07:58;3.73;;;2.00;;
6288;SDS011;3177;49.880;8.836;2023-09-30T02:10:25;6.53;;;2.17;;
6288;SDS011;3177;49.880;8.836;2023-09-30T02:12:52;2.63;;;2.10;;
6288;SDS011;3177;49.880;8.836;2023-09-30T02:15:20;3.37;;;2.40;;
6288;SDS011;3177;49.880;8.836;2023-09-30T02:17:47;3.07;;;2.07;;
6288;SDS011;3177;49.880;8.836;2023-09-30T02:20:14;3.50;;;2.33;;
6288;SDS011;3177;49.880;8.836;2023-09-30T02:22:44;3.33;;;2.30;;
6288;SDS011;3177;49.880;8.836;2023-09-30T02:25:12;4.20;;;2.30;;
6288;SDS011;3177;49.880;8.836;2023-09-30T02:27:41;3.90;;;2.50;;
6288;SDS011;3177;49.880;8.836;2023-09-30T02:30:09;5.40;;;2.40;;
6288;SDS011;3177;49.880;8.836;2023-09-30T02:32:38;5.77;;;2.30;;
6288;SDS011;3177;49.880;8.836;2023-09-30T02:35:06;2.73;;;2.20;;
6288;SDS011;3177;49.880;8.836;2023-09-30T02:37:33;3.40;;;2.40;;
6288;SDS011;3177;49.880;8.836;2023-09-30T02:40:01;6.53;;;2.97;;
6288;SDS011;3177;49.880;8.836;2023-09-30T02:42:30;6.67;;;2.60;;
6288;SDS011;3177;49.880;8.836;2023-09-30T02:44:59;4.93;;;2.50;;
6288;SDS011;3177;49.880;8.836;2023-09-30T02:47:26;5.83;;;2.53;;
6288;SDS011;3177;49.880;8.836;2023-09-30T02:49:56;4.70;;;2.67;;
6288;SDS011;3177;49.880;8.836;2023-09-30T02:52:23;5.27;;;2.40;;
6288;SDS011;3177;49.880;8.836;2023-09-30T02:54:50;5.67;;;2.70;;
6288;SDS011;3177;49.880;8.836;2023-09-30T02:57:18;2.80;;;2.50;;
6288;SDS011;3177;49.880;8.836;2023-09-30T02:59:46;2.57;;;2.20;;
6288;SDS011;3177;49.880;8.836;2023-09-30T03:02:13;4.67;;;2.83;;
6288;SDS011;3177;49.880;8.836;2023-09-30T03:04:40;4.83;;;2.93;;
6288;SDS011;3177;49.880;8.836;2023-09-30T03:07:09;8.03;;;2.83;;
6288;SDS011;3177;49.880;8.836;2023-09-30T03:09:37;4.97;;;2.80;;
6288;SDS011;3177;49.880;8.836;2023-09-30T03:12:04;4.53;;;2.43;;
6288;SDS011;3177;49.880;8.836;2023-09-30T03:14:33;5.03;;;3.23;;
6288;SDS011;3177;49.880;8.836;2023-09-30T03:17:00;5.47;;;3.13;;
6288;SDS011;3177;49.880;8.836;2023-09-30T03:19:28;6.57;;;2.80;;
6288;SDS011;3177;49.880;8.836;2023-09-30T03:21:55;6.10;;;2.67;;
6288;SDS011;3177;49.880;8.836;2023-09-30T03:24:24;8.77;;;3.23;;
6288;SDS011;3177;49.880;8.836;2023-09-30T03:26:52;4.30;;;2.97;;
6288;SDS011;3177;49.880;8.836;2023-09-30T03:29:19;5.10;;;2.53;;
6288;SDS011;3177;49.880;8.836;2023-09-30T03:31:46;3.10;;;2.80;;
6288;SDS011;3177;49.880;8.836;2023-09-30T03:34:13;5.67;;;2.73;;
6288;SDS011;3177;49.880;8.836;2023-09-30T03:36:41;4.13;;;2.77;;
6288;SDS011;3177;49.880;8.836;2023-09-30T03:39:09;3.83;;;2.87;;
6288;SDS011;3177;49.880;8.836;2023-09-30T03:41:41;5.53;;;3.17;;
6288;SDS011;3177;49.880;8.836;2023-09-30T03:44:08;3.33;;;2.70;;
6288;SDS011;3177;49.880;8.836;2023-09-30T03:46:36;4.63;;;2.97;;
6288;SDS011;3177;49.880;8.836;2023-09-30T03:49:03;4.60;;;2.63;;
6288;SDS011;3177;49.880;8.836;2023-09-30T03:51:33;7.13;;;3.17;;
6288;SDS011;3177;49.880;8.836;2023-09-30T03:54:02;4.33;;;2.53;;
6288;SDS011;3177;49.880;8.836;2023-09-30T03:56:29;5.57;;;3.20;;
6288;SDS011;3177;49.880;8.836;2023-09-30T03:58:58;4.70;;;3.03;;
6288;SDS011;3177;49.880;8.836;2023-09-30T04:01:25;5.63;;;2.60;;
6288;SDS011;3177;49.880;8.836;2023-09-30T04:03:52;3.77;;;2.90;;
6288;SDS011;3177;49.880;8.836;2023-09-30T04:06:21;5.67;;;3.30;;
6288;SDS011;3177;49.880;8.836;2023-09-30T04:08:48;4.83;;;2.97;;
6288;SDS011;3177;49.880;8.836;2023-09-30T04:11:15;5.70;;;2.90;;
6288;SDS011;3177;49.880;8.836;2023-09-30T04:13:43;7.07;;;3.37;;
6288;SDS011;3177;49.880;8.836;2023-09-30T04:16:12;6.00;;;3.00;;
6288;SDS011;3177;49.880;8.836;2023-09-30T04:18:39;5.03;;;3.10;;
6288;SDS011;3177;49.880;8.836;2023-09-30T04:21:06;6.00;;;3.20;;
6288;SDS011;3177;49.880;8.836;2023-09-30T04:23:33;5.23;;;3.00;;
6288;SDS011;3177;49.880;8.836;2023-09-30T04:26:01;6.00;;;3.13;;
6288;SDS011;3177;49.880;8.836;2023-09-30T04:28:30;6.37;;;2.73;;
6288;SDS011;3177;49.880;8.836;2023-09-30T04:30:59;5.10;;;3.27;;
6288;SDS011;3177;49.880;8.836;2023-09-30T04:33:29;5.30;;;3.40;;
6288;SDS011;3177;49.880;8.836;2023-09-30T04:35:56;7.97;;;2.80;;
6288;SDS011;3177;49.880;8.836;2023-09-30T04:38:23;4.67;;;2.83;;
6288;SDS011;3177;49.880;8.836;2023-09-30T04:40:51;6.60;;;3.07;;
6288;SDS011;3177;49.880;8.836;2023-09-30T04:43:19;6.87;;;3.43;;
6288;SDS011;3177;49.880;8.836;2023-09-30T04:45:46;6.60;;;3.20;;
6288;SDS011;3177;49.880;8.836;2023-09-30T04:48:14;7.57;;;2.97;;
6288;SDS011;3177;49.880;8.836;2023-09-30T04:50:43;8.93;;;3.17;;
6288;SDS011;3177;49.880;8.836;2023-09-30T04:53:10;3.97;;;3.00;;
6288;SDS011;3177;49.880;8.836;2023-09-30T04:55:38;5.60;;;3.20;;
6288;SDS011;3177;49.880;8.836;2023-09-30T04:58:05;7.60;;;3.10;;
6288;SDS011;3177;49.880;8.836;2023-09-30T05:00:32;7.63;;;3.40;;
6288;SDS011;3177;49.880;8.836;2023-09-30T05:03:00;4.87;;;2.90;;
6288;SDS011;3177;49.880;8.836;2023-09-30T05:05:27;5.30;;;3.17;;
6288;SDS011;3177;49.880;8.836;2023-09-30T05:07:56;5.33;;;2.83;;
6288;SDS011;3177;49.880;8.836;2023-09-30T05:10:24;10.37;;;3.50;;
6288;SDS011;3177;49.880;8.836;2023-09-30T05:12:51;7.10;;;3.07;;
6288;SDS011;3177;49.880;8.836;2023-09-30T05:15:20;6.27;;;3.53;;
6288;SDS011;3177;49.880;8.836;2023-09-30T05:17:48;4.00;;;2.80;;
6288;SDS011;3177;49.880;8.836;2023-09-30T05:20:15;4.47;;;3.17;;
6288;SDS011;3177;49.880;8.836;2023-09-30T05:22:43;7.00;;;3.03;;
6288;SDS011;3177;49.880;8.836;2023-09-30T05:25:12;5.27;;;2.90;;
6288;SDS011;3177;49.880;8.836;2023-09-30T05:27:41;8.57;;;3.80;;
6288;SDS011;3177;49.880;8.836;2023-09-30T05:30:08;7.57;;;2.70;;
6288;SDS011;3177;49.880;8.836;2023-09-30T05:32:36;3.90;;;3.17;;
6288;SDS011;3177;49.880;8.836;2023-09-30T05:35:04;8.30;;;3.17;;
6288;SDS011;3177;49.880;8.836;2023-09-30T05:37:37;8.60;;;3.50;;
6288;SDS011;3177;49.880;8.836;2023-09-30T05:40:05;5.97;;;2.93;;
6288;SDS011;3177;49.880;8.836;2023-09-30T05:42:42;5.90;;;3.03;;
6288;SDS011;3177;49.880;8.836;2023-09-30T05:45:10;5.23;;;3.60;;
6288;SDS011;3177;49.880;8.836;2023-09-30T05:47:37;6.13;;;2.70;;
6288;SDS011;3177;49.880;8.836;2023-09-30T05:50:06;8.70;;;3.37;;
6288;SDS011;3177;49.880;8.836;2023-09-30T05:52:34;6.70;;;2.83;;
6288;SDS011;3177;49.880;8.836;2023-09-30T05:55:02;7.50;;;3.40;;
6288;SDS011;3177;49.880;8.836;2023-09-30T05:57:29;6.40;;;2.80;;
6288;SDS011;3177;49.880;8.836;2023-09-30T05:59:58;8.33;;;3.20;;
6288;SDS011;3177;49.880;8.836;2023-09-30T06:02:25;4.13;;;2.60;;
6288;SDS011;3177;49.880;8.836;2023-09-30T06:04:52;4.20;;;3.13;;
6288;SDS011;3177;49.880;8.836;2023-09-30T06:07:19;4.57;;;2.70;;
6288;SDS011;3177;49.880;8.836;2023-09-30T06:09:47;5.80;;;2.83;;
6288;SDS011;3177;49.880;8.836;2023-09-30T06:12:15;5.57;;;3.00;;
6288;SDS011;3177;49.880;8.836;2023-09-30T06:14:42;7.37;;;3.40;;
6288;SDS011;3177;49.880;8.836;2023-09-30T06:17:10;4.00;;;2.87;;
6288;SDS011;3177;49.880;8.836;2023-09-30T06:19:37;3.27;;;2.67;;
6288;SDS011;3177;49.880;8.836;2023-09-30T06:22:04;6.33;;;3.50;;
6288;SDS011;3177;49.880;8.836;2023-09-30T06:24:32;8.50;;;3.37;;
6288;SDS011;3177;49.880;8.836;2023-09-30T06:26:59;4.23;;;3.20;;
6288;SDS011;3177;49.880;8.836;2023-09-30T06:29:26;4.10;;;3.20;;
6288;SDS011;3177;49.880;8.836;2023-09-30T06:31:54;7.10;;;3.37;;
6288;SDS011;3177;49.880;8.836;2023-09-30T06:34:22;6.53;;;3.33;;
6288;SDS011;3177;49.880;8.836;2023-09-30T06:36:50;4.87;;;3.70;;
6288;SDS011;3177;49.880;8.836;2023-09-30T06:39:18;6.40;;;3.80;;
6288;SDS011;3177;49.880;8.836;2023-09-30T06:41:45;9.67;;;3.90;;
6288;SDS011;3177;49.880;8.836;2023-09-30T06:44:12;5.00;;;3.33;;
6288;SDS011;3177;49.880;8.836;2023-09-30T06:46:39;5.40;;;3.77;;
6288;SDS011;3177;49.880;8.836;2023-09-30T06:49:06;5.57;;;3.77;;
6288;SDS011;3177;49.880;8.836;2023-09-30T06:51:35;10.37;;;3.83;;
6288;SDS011;3177;49.880;8.836;2023-09-30T06:54:04;5.90;;;3.93;;
6288;SDS011;3177;49.880;8.836;2023-09-30T06:56:33;7.33;;;4.47;;
6288;SDS011;3177;49.880;8.836;2023-09-30T06:59:00;6.73;;;3.87;;
6288;SDS011;3177;49.880;8.836;2023-09-30T07:01:28;8.10;;;3.97;;
6288;SDS011;3177;49.880;8.836;2023-09-30T07:03:55;8.27;;;4.70;;
6288;SDS011;3177;49.880;8.836;2023-09-30T07:06:22;11.10;;;4.40;;
6288;SDS011;3177;49.880;8.836;2023-09-30T07:08:51;7.77;;;4.33;;
6288;SDS011;3177;49.880;8.836;2023-09-30T07:11:26;7.83;;;3.97;;
6288;SDS011;3177;49.880;8.836;2023-09-30T07:13:53;8.03;;;4.57;;
6288;SDS011;3177;49.880;8.836;2023-09-30T07:16:20;6.83;;;3.87;;
6288;SDS011;3177;49.880;8.836;2023-09-30T07:18:47;8.13;;;4.63;;
6288;SDS011;3177;49.880;8.836;2023-09-30T07:21:15;6.60;;;4.33;;
6288;SDS011;3177;49.880;8.836;2023-09-30T07:23:42;9.77;;;5.00;;
6288;SDS011;3177;49.880;8.836;2023-09-30T07:26:10;9.13;;;4.73;;
6288;SDS011;3177;49.880;8.836;2023-09-30T07:28:38;8.90;;;4.80;;
6288;SDS011;3177;49.880;8.836;2023-09-30T07:31:05;8.90;;;4.17;;
6288;SDS011;3177;49.880;8.836;2023-09-30T07:33:32;8.47;;;4.10;;
6288;SDS011;3177;49.880;8.836;2023-09-30T07:35:59;7.83;;;4.53;;
6288;SDS011;3177;49.880;8.836;2023-09-30T07:38:26;7.23;;;4.10;;
6288;SDS011;3177;49.880;8.836;2023-09-30T07:40:53;5.63;;;4.03;;
6288;SDS011;3177;49.880;8.836;2023-09-30T07:43:22;9.27;;;4.13;;
6288;SDS011;3177;49.880;8.836;2023-09-30T07:45:49;7.93;;;4.40;;
6288;SDS011;3177;49.880;8.836;2023-09-30T07:48:16;8.80;;;4.47;;
6288;SDS011;3177;49.880;8.836;2023-09-30T07:50:44;6.10;;;4.60;;
6288;SDS011;3177;49.880;8.836;2023-09-30T07:53:12;8.07;;;3.87;;
6288;SDS011;3177;49.880;8.836;2023-09-30T07:55:39;9.13;;;4.20;;
6288;SDS011;3177;49.880;8.836;2023-09-30T07:58:06;5.97;;;4.10;;
6288;SDS011;3177;49.880;8.836;2023-09-30T08:00:35;5.93;;;4.43;;
6288;SDS011;3177;49.880;8.836;2023-09-30T08:03:02;6.10;;;3.90;;
6288;SDS011;3177;49.880;8.836;2023-09-30T08:05:29;12.63;;;3.97;;
6288;SDS011;3177;49.880;8.836;2023-09-30T08:07:57;11.33;;;3.67;;
6288;SDS011;3177;49.880;8.836;2023-09-30T08:10:24;11.53;;;4.07;;
6288;SDS011;3177;49.880;8.836;2023-09-30T08:12:51;7.23;;;3.87;;
6288;SDS011;3177;49.880;8.836;2023-09-30T08:15:20;6.23;;;3.60;;
6288;SDS011;3177;49.880;8.836;2023-09-30T08:17:48;4.43;;;3.10;;
6288;SDS011;3177;49.880;8.836;2023-09-30T08:20:15;5.40;;;3.30;;
6288;SDS011;3177;49.880;8.836;2023-09-30T08:22:43;5.53;;;3.13;;
6288;SDS011;3177;49.880;8.836;2023-09-30T08:25:11;5.07;;;3.97;;
6288;SDS011;3177;49.880;8.836;2023-09-30T08:27:38;6.10;;;3.87;;
6288;SDS011;3177;49.880;8.836;2023-09-30T08:30:05;4.70;;;3.57;;
6288;SDS011;3177;49.880;8.836;2023-09-30T08:32:33;5.63;;;3.70;;
6288;SDS011;3177;49.880;8.836;2023-09-30T08:35:02;3.83;;;3.30;;
6288;SDS011;3177;49.880;8.836;2023-09-30T08:37:29;4.53;;;3.40;;
6288;SDS011;3177;49.880;8.836;2023-09-30T08:39:57;5.37;;;4.00;;
6288;SDS011;3177;49.880;8.836;2023-09-30T08:42:24;5.63;;;3.23;;
6288;SDS011;3177;49.880;8.836;2023-09-30T08:44:56;6.50;;;3.50;;
6288;SDS011;3177;49.880;8.836;2023-09-30T08:47:24;6.60;;;3.90;;
6288;SDS011;3177;49.880;8.836;2023-09-30T08:49:53;5.73;;;3.60;;
6288;SDS011;3177;49.880;8.836;2023-09-30T08:52:24;5.13;;;3.38;;
6288;SDS011;3177;49.880;8.836;2023-09-30T08:54:53;5.97;;;3.38;;
6288;SDS011;3177;49.880;8.836;2023-09-30T08:57:20;5.05;;;2.90;;
6288;SDS011;3177;49.880;8.836;2023-09-30T08:59:47;8.40;;;3.83;;
6288;SDS011;3177;49.880;8.836;2023-09-30T09:02:15;7.38;;;3.50;;
6288;SDS011;3177;49.880;8.836;2023-09-30T09:04:43;5.22;;;3.15;;
6288;SDS011;3177;49.880;8.836;2023-09-30T09:07:11;5.13;;;3.03;;
6288;SDS011;3177;49.880;8.836;2023-09-30T09:09:39;4.72;;;2.72;;
6288;SDS011;3177;49.880;8.836;2023-09-30T09:12:06;5.40;;;3.25;;
6288;SDS011;3177;49.880;8.836;2023-09-30T09:14:37;7.00;;;3.55;;
6288;SDS011;3177;49.880;8.836;2023-09-30T09:17:06;6.90;;;3.65;;
6288;SDS011;3177;49.880;8.836;2023-09-30T09:19:33;6.47;;;3.50;;
6288;SDS011;3177;49.880;8.836;2023-09-30T09:22:01;6.45;;;3.33;;
6288;SDS011;3177;49.880;8.836;2023-09-30T09:24:30;9.68;;;3.50;;
6288;SDS011;3177;49.880;8.836;2023-09-30T09:27:05;7.57;;;3.72;;
6288;SDS011;3177;49.880;8.836;2023-09-30T09:29:32;7.80;;;3.70;;
6288;SDS011;3177;49.880;8.836;2023-09-30T09:32:06;6.20;;;3.28;;
6288;SDS011;3177;49.880;8.836;2023-09-30T09:34:34;6.93;;;3.78;;
6288;SDS011;3177;49.880;8.836;2023-09-30T09:37:05;6.68;;;4.10;;
6288;SDS011;3177;49.880;8.836;2023-09-30T09:39:39;9.93;;;3.95;;
6288;SDS011;3177;49.880;8.836;2023-09-30T09:42:08;8.02;;;3.35;;
6288;SDS011;3177;49.880;8.836;2023-09-30T09:44:36;4.10;;;2.88;;
6288;SDS011;3177;49.880;8.836;2023-09-30T09:47:03;5.35;;;3.17;;
6288;SDS011;3177;49.880;8.836;2023-09-30T09:49:32;5.45;;;2.72;;
6288;SDS011;3177;49.880;8.836;2023-09-30T09:51:59;3.33;;;2.55;;
6288;SDS011;3177;49.880;8.836;2023-09-30T09:54:27;3.55;;;2.38;;
6288;SDS011;3177;49.880;8.836;2023-09-30T09:56:55;3.75;;;2.65;;
6288;SDS011;3177;49.880;8.836;2023-09-30T09:59:24;5.38;;;2.78;;
6288;SDS011;3177;49.880;8.836;2023-09-30T10:01:51;10.35;;;2.75;;
6288;SDS011;3177;49.880;8.836;2023-09-30T10:04:19;5.00;;;2.65;;
6288;SDS011;3177;49.880;8.836;2023-09-30T10:06:46;7.07;;;2.70;;
6288;SDS011;3177;49.880;8.836;2023-09-30T10:09:20;5.40;;;2.85;;
6288;SDS011;3177;49.880;8.836;2023-09-30T10:11:48;4.65;;;2.42;;
6288;SDS011;3177;49.880;8.836;2023-09-30T10:14:30;4.93;;;2.47;;
6288;SDS011;3177;49.880;8.836;2023-09-30T10:16:58;6.65;;;2.65;;
6288;SDS011;3177;49.880;8.836;2023-09-30T10:19:26;7.43;;;2.90;;
6288;SDS011;3177;49.880;8.836;2023-09-30T10:24:39;4.80;;;2.22;;
6288;SDS011;3177;49.880;8.836;2023-09-30T10:29:49;4.07;;;2.47;;
6288;SDS011;3177;49.880;8.836;2023-09-30T10:32:20;4.95;;;2.75;;
6288;SDS011;3177;49.880;8.836;2023-09-30T10:34:48;3.70;;;2.20;;
6288;SDS011;3177;49.880;8.836;2023-09-30T10:37:20;3.35;;;2.28;;
6288;SDS011;3177;49.880;8.836;2023-09-30T10:42:47;4.40;;;2.38;;
6288;SDS011;3177;49.880;8.836;2023-09-30T10:50:50;4.15;;;2.45;;
6288;SDS011;3177;49.880;8.836;2023-09-30T10:53:18;5.20;;;2.35;;
6288;SDS011;3177;49.880;8.836;2023-09-30T10:55:45;3.78;;;2.45;;
6288;SDS011;3177;49.880;8.836;2023-09-30T10:58:12;3.72;;;1.98;;
6288;SDS011;3177;49.880;8.836;2023-09-30T11:00:42;3.95;;;2.28;;
6288;SDS011;3177;49.880;8.836;2023-09-30T11:03:19;3.75;;;2.60;;
6288;SDS011;3177;49.880;8.836;2023-09-30T11:05:47;4.75;;;2.70;;
6288;SDS011;3177;49.880;8.836;2023-09-30T11:08:18;3.90;;;2.10;;
6288;SDS011;3177;49.880;8.836;2023-09-30T11:10:48;3.72;;;2.55;;
6288;SDS011;3177;49.880;8.836;2023-09-30T11:13:15;5.18;;;2.40;;
6288;SDS011;3177;49.880;8.836;2023-09-30T11:15:43;4.47;;;2.15;;
6288;SDS011;3177;49.880;8.836;2023-09-30T11:18:13;4.38;;;2.10;;
6288;SDS011;3177;49.880;8.836;2023-09-30T11:20:40;4.30;;;2.30;;
6288;SDS011;3177;49.880;8.836;2023-09-30T11:23:07;3.30;;;1.92;;
6288;SDS011;3177;49.880;8.836;2023-09-30T11:25:36;4.15;;;2.22;;
6288;SDS011;3177;49.880;8.836;2023-09-30T11:28:14;3.95;;;2.53;;
6288;SDS011;3177;49.880;8.836;2023-09-30T11:30:54;2.72;;;2.00;;
6288;SDS011;3177;49.880;8.836;2023-09-30T11:33:21;5.65;;;2.33;;
6288;SDS011;3177;49.880;8.836;2023-09-30T11:35:55;3.45;;;1.92;;
6288;SDS011;3177;49.880;8.836;2023-09-30T11:38:24;4.05;;;2.33;;
6288;SDS011;3177;49.880;8.836;2023-09-30T11:40:59;5.50;;;2.40;;
6288;SDS011;3177;49.880;8.836;2023-09-30T11:43:27;3.30;;;2.05;;
6288;SDS011;3177;49.880;8.836;2023-09-30T11:46:03;3.60;;;2.05;;
6288;SDS011;3177;49.880;8.836;2023-09-30T11:48:30;3.13;;;1.75;;
6288;SDS011;3177;49.880;8.836;2023-09-30T11:50:58;2.28;;;2.08;;
6288;SDS011;3177;49.880;8.836;2023-09-30T11:53:28;6.53;;;2.03;;
6288;SDS011;3177;49.880;8.836;2023-09-30T11:55:56;5.07;;;1.95;;
6288;SDS011;3177;49.880;8.836;2023-09-30T11:58:25;3.33;;;1.98;;
6288;SDS011;3177;49.880;8.836;2023-09-30T12:00:55;6.18;;;2.15;;
6288;SDS011;3177;49.880;8.836;2023-09-30T12:03:24;2.47;;;2.08;;
6288;SDS011;3177;49.880;8.836;2023-09-30T12:05:52;3.15;;;1.98;;
6288;SDS011;3177;49.880;8.836;2023-09-30T12:08:20;3.80;;;2.42;;
6288;SDS011;3177;49.880;8.836;2023-09-30T12:10:47;4.47;;;2.63;;
6288;SDS011;3177;49.880;8.836;2023-09-30T12:13:15;1.85;;;1.60;;
6288;SDS011;3177;49.880;8.836;2023-09-30T12:15:43;2.60;;;1.77;;
6288;SDS011;3177;49.880;8.836;2023-09-30T12:18:10;2.60;;;1.80;;
6288;SDS011;3177;49.880;8.836;2023-09-30T12:20:42;2.50;;;1.40;;
6288;SDS011;3177;49.880;8.836;2023-09-30T12:23:09;1.30;;;1.00;;
6288;SDS011;3177;49.880;8.836;2023-09-30T12:25:36;1.65;;;1.35;;
6288;SDS011;3177;49.880;8.836;2023-09-30T12:28:03;3.45;;;1.55;;
6288;SDS011;3177;49.880;8.836;2023-09-30T12:30:30;3.60;;;1.73;;
6288;SDS011;3177;49.880;8.836;2023-09-30T12:32:59;5.75;;;1.88;;
6288;SDS011;3177;49.880;8.836;2023-09-30T12:35:26;2.13;;;1.42;;
6288;SDS011;3177;49.880;8.836;2023-09-30T12:37:54;4.13;;;2.10;;
6288;SDS011;3177;49.880;8.836;2023-09-30T12:40:21;1.98;;;1.67;;
6288;SDS011;3177;49.880;8.836;2023-09-30T12:42:48;2.58;;;1.70;;
6288;SDS011;3177;49.880;8.836;2023-09-30T12:45:15;2.78;;;1.58;;
6288;SDS011;3177;49.880;8.836;2023-09-30T12:47:43;4.78;;;1.95;;
6288;SDS011;3177;49.880;8.836;2023-09-30T12:50:13;3.28;;;1.73;;
6288;SDS011;3177;49.880;8.836;2023-09-30T12:52:40;4.13;;;1.63;;
6288;SDS011;3177;49.880;8.836;2023-09-30T12:55:08;1.70;;;1.40;;
6288;SDS011;3177;49.880;8.836;2023-09-30T12:57:35;2.70;;;1.70;;
6288;SDS011;3177;49.880;8.836;2023-09-30T13:00:02;3.40;;;1.55;;
6288;SDS011;3177;49.880;8.836;2023-09-30T13:02:34;2.88;;;1.50;;
6288;SDS011;3177;49.880;8.836;2023-09-30T13:05:01;2.95;;;1.75;;
6288;SDS011;3177;49.880;8.836;2023-09-30T13:07:31;2.88;;;1.70;;
6288;SDS011;3177;49.880;8.836;2023-09-30T13:09:58;3.38;;;1.70;;
6288;SDS011;3177;49.880;8.836;2023-09-30T13:12:26;1.52;;;1.38;;
6288;SDS011;3177;49.880;8.836;2023-09-30T13:14:53;1.98;;;1.48;;
6288;SDS011;3177;49.880;8.836;2023-09-30T13:17:21;3.20;;;1.55;;
6288;SDS011;3177;49.880;8.836;2023-09-30T13:19:48;3.53;;;1.80;;
6288;SDS011;3177;49.880;8.836;2023-09-30T13:22:16;2.80;;;2.00;;
6288;SDS011;3177;49.880;8.836;2023-09-30T13:24:44;3.72;;;1.90;;
6288;SDS011;3177;49.880;8.836;2023-09-30T13:27:11;2.13;;;1.58;;
6288;SDS011;3177;49.880;8.836;2023-09-30T13:29:40;3.40;;;1.77;;
6288;SDS011;3177;49.880;8.836;2023-09-30T13:32:08;2.75;;;1.77;;
6288;SDS011;3177;49.880;8.836;2023-09-30T13:34:35;2.75;;;1.52;;
6288;SDS011;3177;49.880;8.836;2023-09-30T13:37:03;2.40;;;1.67;;
6288;SDS011;3177;49.880;8.836;2023-09-30T13:39:30;2.13;;;1.70;;
6288;SDS011;3177;49.880;8.836;2023-09-30T13:42:00;3.55;;;1.85;;
6288;SDS011;3177;49.880;8.836;2023-09-30T13:44:27;3.63;;;1.92;;
6288;SDS011;3177;49.880;8.836;2023-09-30T13:46:54;1.95;;;1.60;;
6288;SDS011;3177;49.880;8.836;2023-09-30T13:49:21;2.53;;;2.00;;
6288;SDS011;3177;49.880;8.836;2023-09-30T13:51:48;2.88;;;1.88;;
6288;SDS011;3177;49.880;8.836;2023-09-30T13:54:15;2.15;;;1.77;;
6288;SDS011;3177;49.880;8.836;2023-09-30T13:56:42;3.17;;;1.70;;
6288;SDS011;3177;49.880;8.836;2023-09-30T13:59:11;3.22;;;1.92;;
6288;SDS011;3177;49.880;8.836;2023-09-30T14:01:38;1.67;;;1.48;;
6288;SDS011;3177;49.880;8.836;2023-09-30T14:04:06;2.65;;;1.40;;
6288;SDS011;3177;49.880;8.836;2023-09-30T14:06:33;4.30;;;2.17;;
6288;SDS011;3177;49.880;8.836;2023-09-30T14:09:01;3.35;;;1.90;;
6288;SDS011;3177;49.880;8.836;2023-09-30T14:11:29;3.50;;;1.80;;
6288;SDS011;3177;49.880;8.836;2023-09-30T14:13:56;2.78;;;1.95;;
6288;SDS011;3177;49.880;8.836;2023-09-30T14:16:25;3.58;;;1.90;;
6288;SDS011;3177;49.880;8.836;2023-09-30T14:18:52;2.10;;;1.85;;
6288;SDS011;3177;49.880;8.836;2023-09-30T14:21:20;3.05;;;1.50;;
6288;SDS011;3177;49.880;8.836;2023-09-30T14:23:47;5.63;;;1.95;;
6288;SDS011;3177;49.880;8.836;2023-09-30T14:26:14;2.00;;;1.73;;
6288;SDS011;3177;49.880;8.836;2023-09-30T14:28:42;3.50;;;1.85;;
6288;SDS011;3177;49.880;8.836;2023-09-30T14:31:10;2.45;;;1.67;;
6288;SDS011;3177;49.880;8.836;2023-09-30T14:33:38;2.47;;;1.65;;
6288;SDS011;3177;49.880;8.836;2023-09-30T14:36:05;3.10;;;1.42;;
6288;SDS011;3177;49.880;8.836;2023-09-30T14:38:32;4.05;;;1.40;;
6288;SDS011;3177;49.880;8.836;2023-09-30T14:41:01;3.08;;;1.63;;
6288;SDS011;3177;49.880;8.836;2023-09-30T14:43:32;4.13;;;1.45;;
6288;SDS011;3177;49.880;8.836;2023-09-30T14:46:00;4.15;;;1.98;;
6288;SDS011;3177;49.880;8.836;2023-09-30T14:48:28;2.88;;;1.90;;
6288;SDS011;3177;49.880;8.836;2023-09-30T14:50:56;3.53;;;1.73;;
6288;SDS011;3177;49.880;8.836;2023-09-30T14:53:23;2.67;;;1.70;;
6288;SDS011;3177;49.880;8.836;2023-09-30T14:55:51;5.63;;;1.73;;
6288;SDS011;3177;49.880;8.836;2023-09-30T14:58:18;2.22;;;1.58;;
6288;SDS011;3177;49.880;8.836;2023-09-30T15:00:45;3.25;;;1.92;;
6288;SDS011;3177;49.880;8.836;2023-09-30T15:03:12;3.25;;;1.92;;
6288;SDS011;3177;49.880;8.836;2023-09-30T15:05:39;4.07;;;1.90;;
6288;SDS011;3177;49.880;8.836;2023-09-30T15:08:08;3.80;;;1.80;;
6288;SDS011;3177;49.880;8.836;2023-09-30T15:10:35;1.85;;;1.65;;
6288;SDS011;3177;49.880;8.836;2023-09-30T15:13:02;3.53;;;1.75;;
6288;SDS011;3177;49.880;8.836;2023-09-30T15:15:30;2.50;;;1.60;;
6288;SDS011;3177;49.880;8.836;2023-09-30T15:17:57;2.67;;;1.63;;
6288;SDS011;3177;49.880;8.836;2023-09-30T15:20:25;2.10;;;1.80;;
6288;SDS011;3177;49.880;8.836;2023-09-30T15:22:52;2.17;;;1.77;;
6288;SDS011;3177;49.880;8.836;2023-09-30T15:25:21;3.15;;;1.73;;
6288;SDS011;3177;49.880;8.836;2023-09-30T15:27:48;2.88;;;1.55;;
6288;SDS011;3177;49.880;8.836;2023-09-30T15:30:15;1.75;;;1.58;;
6288;SDS011;3177;49.880;8.836;2023-09-30T15:32:43;3.35;;;2.00;;